sensor_id;sensor_type;location;lat;lon;timestamp;P1;durP1;ratioP1;P2;durP2;ratioP2
20619;SDS011;10469;42.720;23.252;2024-01-25T00:00:20;21.95;;;13.43;;
20619;SDS011;10469;42.720;23.252;2024-01-25T00:02:46;20.88;;;12.25;;
20619;SDS011;10469;42.720;23.252;2024-01-25T00:05:12;18.88;;;10.65;;
20619;SDS011;10469;42.720;23.252;2024-01-25T00:07:50;15.75;;;9.30;;
20619;SDS011;10469;42.720;23.252;2024-01-25T00:10:16;15.77;;;8.38;;
20619;SDS011;10469;42.720;23.252;2024-01-25T00:12:42;14.63;;;7.93;;
20619;SDS011;10469;42.720;23.252;2024-01-25T00:15:08;9.30;;;6.53;;
20619;SDS011;10469;42.720;23.252;2024-01-25T00:17:35;12.15;;;6.93;;
20619;SDS011;10469;42.720;23.252;2024-01-25T00:20:01;8.90;;;6.50;;
20619;SDS011;10469;42.720;23.252;2024-01-25T00:22:27;17.88;;;7.43;;
20619;SDS011;10469;42.720;23.252;2024-01-25T00:24:52;12.55;;;6.45;;
20619;SDS011;10469;42.720;23.252;2024-01-25T00:27:18;10.98;;;6.88;;
20619;SDS011;10469;42.720;23.252;2024-01-25T00:29:44;17.35;;;8.10;;
20619;SDS011;10469;42.720;23.252;2024-01-25T00:32:09;14.10;;;7.35;;
20619;SDS011;10469;42.720;23.252;2024-01-25T00:34:35;14.88;;;8.32;;
20619;SDS011;10469;42.720;23.252;2024-01-25T00:37:01;15.35;;;7.18;;
20619;SDS011;10469;42.720;23.252;2024-01-25T00:39:27;13.07;;;6.18;;
20619;SDS011;10469;42.720;23.252;2024-01-25T00:41:52;11.43;;;7.15;;
20619;SDS011;10469;42.720;23.252;2024-01-25T00:44:23;10.82;;;6.63;;
20619;SDS011;10469;42.720;23.252;2024-01-25T00:46:49;11.20;;;6.47;;
20619;SDS011;10469;42.720;23.252;2024-01-25T00:49:17;10.00;;;6.13;;
20619;SDS011;10469;42.720;23.252;2024-01-25T00:51:44;12.43;;;6.15;;
20619;SDS011;10469;42.720;23.252;2024-01-25T00:54:12;10.13;;;5.00;;
20619;SDS011;10469;42.720;23.252;2024-01-25T00:56:41;8.63;;;4.90;;
20619;SDS011;10469;42.720;23.252;2024-01-25T00:59:07;7.88;;;5.40;;
20619;SDS011;10469;42.720;23.252;2024-01-25T01:01:33;8.48;;;5.70;;
20619;SDS011;10469;42.720;23.252;2024-01-25T01:03:59;8.77;;;5.00;;
20619;SDS011;10469;42.720;23.252;2024-01-25T01:06:25;9.38;;;5.68;;
20619;SDS011;10469;42.720;23.252;2024-01-25T01:08:51;10.50;;;5.28;;
20619;SDS011;10469;42.720;23.252;2024-01-25T01:11:18;9.20;;;4.35;;
20619;SDS011;10469;42.720;23.252;2024-01-25T01:13:44;6.50;;;4.78;;
20619;SDS011;10469;42.720;23.252;2024-01-25T01:16:09;5.93;;;3.97;;
20619;SDS011;10469;42.720;23.252;2024-01-25T01:18:35;8.27;;;4.00;;
20619;SDS011;10469;42.720;23.252;2024-01-25T01:21:01;5.10;;;3.60;;
20619;SDS011;10469;42.720;23.252;2024-01-25T01:23:27;7.90;;;3.72;;
20619;SDS011;10469;42.720;23.252;2024-01-25T01:25:53;5.70;;;3.35;;
20619;SDS011;10469;42.720;23.252;2024-01-25T01:28:18;5.28;;;3.30;;
20619;SDS011;10469;42.720;23.252;2024-01-25T01:30:44;5.07;;;3.13;;
20619;SDS011;10469;42.720;23.252;2024-01-25T01:33:15;4.75;;;3.00;;
20619;SDS011;10469;42.720;23.252;2024-01-25T01:35:48;3.53;;;2.70;;
20619;SDS011;10469;42.720;23.252;2024-01-25T01:38:14;5.25;;;3.20;;
20619;SDS011;10469;42.720;23.252;2024-01-25T01:40:39;4.13;;;2.70;;
20619;SDS011;10469;42.720;23.252;2024-01-25T01:43:05;4.03;;;2.58;;
20619;SDS011;10469;42.720;23.252;2024-01-25T01:45:31;6.10;;;3.20;;
20619;SDS011;10469;42.720;23.252;2024-01-25T01:47:56;5.07;;;2.60;;
20619;SDS011;10469;42.720;23.252;2024-01-25T01:50:23;4.53;;;3.10;;
20619;SDS011;10469;42.720;23.252;2024-01-25T01:52:49;6.43;;;3.70;;
20619;SDS011;10469;42.720;23.252;2024-01-25T01:55:16;5.88;;;2.72;;
20619;SDS011;10469;42.720;23.252;2024-01-25T01:57:43;6.63;;;3.00;;
20619;SDS011;10469;42.720;23.252;2024-01-25T02:00:09;5.85;;;3.10;;
20619;SDS011;10469;42.720;23.252;2024-01-25T02:02:36;4.00;;;2.80;;
20619;SDS011;10469;42.720;23.252;2024-01-25T02:05:01;4.55;;;3.00;;
20619;SDS011;10469;42.720;23.252;2024-01-25T02:07:27;4.80;;;3.35;;
20619;SDS011;10469;42.720;23.252;2024-01-25T02:09:53;5.07;;;3.28;;
20619;SDS011;10469;42.720;23.252;2024-01-25T02:12:19;6.72;;;3.63;;
20619;SDS011;10469;42.720;23.252;2024-01-25T02:14:45;5.88;;;3.67;;
20619;SDS011;10469;42.720;23.252;2024-01-25T02:17:10;5.85;;;3.35;;
20619;SDS011;10469;42.720;23.252;2024-01-25T02:19:36;8.63;;;4.00;;
20619;SDS011;10469;42.720;23.252;2024-01-25T02:22:03;5.65;;;3.63;;
20619;SDS011;10469;42.720;23.252;2024-01-25T02:24:30;6.03;;;4.05;;
20619;SDS011;10469;42.720;23.252;2024-01-25T02:26:56;4.50;;;3.60;;
20619;SDS011;10469;42.720;23.252;2024-01-25T02:29:21;7.03;;;4.10;;
20619;SDS011;10469;42.720;23.252;2024-01-25T02:31:47;6.90;;;4.15;;
20619;SDS011;10469;42.720;23.252;2024-01-25T02:34:13;7.22;;;3.70;;
20619;SDS011;10469;42.720;23.252;2024-01-25T02:36:38;8.10;;;3.75;;
20619;SDS011;10469;42.720;23.252;2024-01-25T02:39:04;6.97;;;3.50;;
20619;SDS011;10469;42.720;23.252;2024-01-25T02:41:30;7.00;;;4.20;;
20619;SDS011;10469;42.720;23.252;2024-01-25T02:43:56;6.40;;;3.92;;
20619;SDS011;10469;42.720;23.252;2024-01-25T02:46:22;7.13;;;4.30;;
20619;SDS011;10469;42.720;23.252;2024-01-25T02:48:48;6.47;;;4.18;;
20619;SDS011;10469;42.720;23.252;2024-01-25T02:51:14;7.88;;;3.53;;
20619;SDS011;10469;42.720;23.252;2024-01-25T02:53:40;5.47;;;4.10;;
20619;SDS011;10469;42.720;23.252;2024-01-25T02:56:06;5.00;;;3.67;;
20619;SDS011;10469;42.720;23.252;2024-01-25T02:58:32;8.27;;;4.68;;
20619;SDS011;10469;42.720;23.252;2024-01-25T03:00:57;4.13;;;3.17;;
20619;SDS011;10469;42.720;23.252;2024-01-25T03:03:23;7.32;;;2.78;;
20619;SDS011;10469;42.720;23.252;2024-01-25T03:05:49;3.28;;;2.40;;
20619;SDS011;10469;42.720;23.252;2024-01-25T03:08:16;4.05;;;2.10;;
20619;SDS011;10469;42.720;23.252;2024-01-25T03:10:41;5.55;;;2.40;;
20619;SDS011;10469;42.720;23.252;2024-01-25T03:13:07;4.70;;;2.22;;
20619;SDS011;10469;42.720;23.252;2024-01-25T03:15:32;2.25;;;1.80;;
20619;SDS011;10469;42.720;23.252;2024-01-25T03:17:58;2.17;;;1.95;;
20619;SDS011;10469;42.720;23.252;2024-01-25T03:20:24;2.53;;;2.03;;
20619;SDS011;10469;42.720;23.252;2024-01-25T03:22:49;3.40;;;2.22;;
20619;SDS011;10469;42.720;23.252;2024-01-25T03:25:15;3.47;;;2.00;;
20619;SDS011;10469;42.720;23.252;2024-01-25T03:27:40;5.03;;;2.05;;
20619;SDS011;10469;42.720;23.252;2024-01-25T03:30:06;3.72;;;2.58;;
20619;SDS011;10469;42.720;23.252;2024-01-25T03:32:35;4.55;;;2.75;;
20619;SDS011;10469;42.720;23.252;2024-01-25T03:35:01;3.10;;;2.50;;
20619;SDS011;10469;42.720;23.252;2024-01-25T03:37:27;4.15;;;2.03;;
20619;SDS011;10469;42.720;23.252;2024-01-25T03:39:52;4.53;;;2.10;;
20619;SDS011;10469;42.720;23.252;2024-01-25T03:42:18;3.05;;;1.88;;
20619;SDS011;10469;42.720;23.252;2024-01-25T03:44:44;2.90;;;2.22;;
20619;SDS011;10469;42.720;23.252;2024-01-25T03:47:11;4.88;;;2.28;;
20619;SDS011;10469;42.720;23.252;2024-01-25T03:49:36;3.50;;;2.17;;
20619;SDS011;10469;42.720;23.252;2024-01-25T03:52:03;3.95;;;2.33;;
20619;SDS011;10469;42.720;23.252;2024-01-25T03:54:29;3.83;;;2.55;;
20619;SDS011;10469;42.720;23.252;2024-01-25T03:56:55;5.05;;;2.67;;
20619;SDS011;10469;42.720;23.252;2024-01-25T03:59:20;5.30;;;2.53;;
20619;SDS011;10469;42.720;23.252;2024-01-25T04:01:46;6.03;;;2.40;;
20619;SDS011;10469;42.720;23.252;2024-01-25T04:04:12;4.60;;;2.40;;
20619;SDS011;10469;42.720;23.252;2024-01-25T04:06:43;4.63;;;2.72;;
20619;SDS011;10469;42.720;23.252;2024-01-25T04:09:13;6.70;;;2.53;;
20619;SDS011;10469;42.720;23.252;2024-01-25T04:11:40;7.03;;;3.13;;
20619;SDS011;10469;42.720;23.252;2024-01-25T04:14:06;5.07;;;2.95;;
20619;SDS011;10469;42.720;23.252;2024-01-25T04:16:32;9.75;;;3.25;;
20619;SDS011;10469;42.720;23.252;2024-01-25T04:18:58;6.05;;;3.42;;
20619;SDS011;10469;42.720;23.252;2024-01-25T04:21:24;5.25;;;3.25;;
20619;SDS011;10469;42.720;23.252;2024-01-25T04:23:50;6.53;;;3.55;;
20619;SDS011;10469;42.720;23.252;2024-01-25T04:26:15;6.50;;;3.90;;
20619;SDS011;10469;42.720;23.252;2024-01-25T04:28:41;6.28;;;3.97;;
20619;SDS011;10469;42.720;23.252;2024-01-25T04:31:07;7.00;;;3.58;;
20619;SDS011;10469;42.720;23.252;2024-01-25T04:33:33;7.10;;;4.05;;
20619;SDS011;10469;42.720;23.252;2024-01-25T04:35:59;7.57;;;4.07;;
20619;SDS011;10469;42.720;23.252;2024-01-25T04:38:24;5.97;;;3.05;;
20619;SDS011;10469;42.720;23.252;2024-01-25T04:40:50;8.40;;;3.50;;
20619;SDS011;10469;42.720;23.252;2024-01-25T04:43:16;5.30;;;3.50;;
20619;SDS011;10469;42.720;23.252;2024-01-25T04:45:41;4.88;;;3.30;;
20619;SDS011;10469;42.720;23.252;2024-01-25T04:48:07;5.22;;;3.28;;
20619;SDS011;10469;42.720;23.252;2024-01-25T04:50:33;6.32;;;3.20;;
20619;SDS011;10469;42.720;23.252;2024-01-25T04:53:01;5.53;;;3.20;;
20619;SDS011;10469;42.720;23.252;2024-01-25T04:55:27;4.63;;;3.60;;
20619;SDS011;10469;42.720;23.252;2024-01-25T04:57:53;5.75;;;4.00;;
20619;SDS011;10469;42.720;23.252;2024-01-25T05:00:22;6.25;;;3.85;;
20619;SDS011;10469;42.720;23.252;2024-01-25T05:02:48;6.63;;;3.55;;
20619;SDS011;10469;42.720;23.252;2024-01-25T05:05:14;3.70;;;3.13;;
20619;SDS011;10469;42.720;23.252;2024-01-25T05:07:40;6.25;;;3.30;;
20619;SDS011;10469;42.720;23.252;2024-01-25T05:10:06;6.53;;;3.67;;
20619;SDS011;10469;42.720;23.252;2024-01-25T05:12:33;6.45;;;3.65;;
20619;SDS011;10469;42.720;23.252;2024-01-25T05:14:59;5.55;;;3.65;;
20619;SDS011;10469;42.720;23.252;2024-01-25T05:17:24;7.25;;;4.00;;
20619;SDS011;10469;42.720;23.252;2024-01-25T05:19:50;6.43;;;3.70;;
20619;SDS011;10469;42.720;23.252;2024-01-25T05:22:16;4.72;;;3.55;;
20619;SDS011;10469;42.720;23.252;2024-01-25T05:24:42;4.25;;;3.10;;
20619;SDS011;10469;42.720;23.252;2024-01-25T05:27:07;4.25;;;2.67;;
20619;SDS011;10469;42.720;23.252;2024-01-25T05:29:33;4.53;;;2.78;;
20619;SDS011;10469;42.720;23.252;2024-01-25T05:31:59;7.57;;;2.70;;
20619;SDS011;10469;42.720;23.252;2024-01-25T05:34:24;7.53;;;3.47;;
20619;SDS011;10469;42.720;23.252;2024-01-25T05:36:50;10.63;;;3.80;;
20619;SDS011;10469;42.720;23.252;2024-01-25T05:39:16;4.65;;;3.03;;
20619;SDS011;10469;42.720;23.252;2024-01-25T05:41:42;5.88;;;3.17;;
20619;SDS011;10469;42.720;23.252;2024-01-25T05:44:11;7.82;;;3.83;;
20619;SDS011;10469;42.720;23.252;2024-01-25T05:46:37;5.60;;;2.80;;
20619;SDS011;10469;42.720;23.252;2024-01-25T05:49:03;4.40;;;2.55;;
20619;SDS011;10469;42.720;23.252;2024-01-25T05:51:28;5.40;;;2.75;;
20619;SDS011;10469;42.720;23.252;2024-01-25T05:53:54;5.55;;;3.05;;
20619;SDS011;10469;42.720;23.252;2024-01-25T05:56:19;3.88;;;2.85;;
20619;SDS011;10469;42.720;23.252;2024-01-25T05:58:45;6.95;;;3.15;;
20619;SDS011;10469;42.720;23.252;2024-01-25T06:01:11;8.18;;;3.00;;
20619;SDS011;10469;42.720;23.252;2024-01-25T06:03:36;3.55;;;2.72;;
20619;SDS011;10469;42.720;23.252;2024-01-25T06:06:02;5.60;;;3.00;;
20619;SDS011;10469;42.720;23.252;2024-01-25T06:08:27;5.45;;;3.33;;
20619;SDS011;10469;42.720;23.252;2024-01-25T06:10:53;6.95;;;2.58;;
20619;SDS011;10469;42.720;23.252;2024-01-25T06:13:18;7.07;;;3.10;;
20619;SDS011;10469;42.720;23.252;2024-01-25T06:15:44;7.10;;;3.35;;
20619;SDS011;10469;42.720;23.252;2024-01-25T06:18:10;5.40;;;2.67;;
20619;SDS011;10469;42.720;23.252;2024-01-25T09:08:08;15.38;;;5.25;;
20619;SDS011;10469;42.720;23.252;2024-01-25T09:10:37;10.23;;;3.83;;
20619;SDS011;10469;42.720;23.252;2024-01-25T09:13:04;11.40;;;5.93;;
20619;SDS011;10469;42.720;23.252;2024-01-25T09:15:29;9.20;;;4.78;;
20619;SDS011;10469;42.720;23.252;2024-01-25T09:17:55;13.18;;;4.85;;
20619;SDS011;10469;42.720;23.252;2024-01-25T09:20:20;17.15;;;5.80;;
20619;SDS011;10469;42.720;23.252;2024-01-25T09:22:46;11.52;;;5.57;;
20619;SDS011;10469;42.720;23.252;2024-01-25T09:25:12;11.63;;;5.65;;
20619;SDS011;10469;42.720;23.252;2024-01-25T09:27:37;12.73;;;4.85;;
20619;SDS011;10469;42.720;23.252;2024-01-25T09:30:04;12.60;;;5.28;;
20619;SDS011;10469;42.720;23.252;2024-01-25T09:32:30;13.98;;;5.30;;
20619;SDS011;10469;42.720;23.252;2024-01-25T09:34:56;11.45;;;4.97;;
20619;SDS011;10469;42.720;23.252;2024-01-25T09:37:21;91.25;;;12.88;;
20619;SDS011;10469;42.720;23.252;2024-01-25T09:39:49;15.25;;;4.68;;
20619;SDS011;10469;42.720;23.252;2024-01-25T09:42:18;17.70;;;4.55;;
20619;SDS011;10469;42.720;23.252;2024-01-25T09:44:44;12.90;;;4.03;;
20619;SDS011;10469;42.720;23.252;2024-01-25T09:47:10;7.68;;;3.83;;
20619;SDS011;10469;42.720;23.252;2024-01-25T09:49:36;7.93;;;3.80;;
20619;SDS011;10469;42.720;23.252;2024-01-25T09:52:02;10.65;;;4.32;;
20619;SDS011;10469;42.720;23.252;2024-01-25T13:01:05;11.48;;;3.83;;
20619;SDS011;10469;42.720;23.252;2024-01-25T13:03:30;9.75;;;3.50;;
20619;SDS011;10469;42.720;23.252;2024-01-25T13:05:56;10.02;;;3.42;;
20619;SDS011;10469;42.720;23.252;2024-01-25T13:08:22;11.15;;;3.13;;
20619;SDS011;10469;42.720;23.252;2024-01-25T13:10:47;10.20;;;3.28;;
20619;SDS011;10469;42.720;23.252;2024-01-25T13:13:13;10.27;;;3.78;;
20619;SDS011;10469;42.720;23.252;2024-01-25T13:15:38;9.52;;;3.35;;
20619;SDS011;10469;42.720;23.252;2024-01-25T13:18:04;9.15;;;3.00;;
20619;SDS011;10469;42.720;23.252;2024-01-25T13:20:30;7.93;;;3.13;;
20619;SDS011;10469;42.720;23.252;2024-01-25T13:22:55;6.60;;;2.95;;
20619;SDS011;10469;42.720;23.252;2024-01-25T13:25:21;9.48;;;3.80;;
20619;SDS011;10469;42.720;23.252;2024-01-25T13:27:46;7.60;;;3.00;;
20619;SDS011;10469;42.720;23.252;2024-01-25T13:30:12;8.93;;;3.25;;
20619;SDS011;10469;42.720;23.252;2024-01-25T13:32:38;8.52;;;2.90;;
20619;SDS011;10469;42.720;23.252;2024-01-25T13:35:04;10.27;;;4.07;;
20619;SDS011;10469;42.720;23.252;2024-01-25T13:37:30;11.40;;;3.03;;
20619;SDS011;10469;42.720;23.252;2024-01-25T13:39:55;10.02;;;3.80;;
20619;SDS011;10469;42.720;23.252;2024-01-25T13:42:21;11.32;;;3.17;;
20619;SDS011;10469;42.720;23.252;2024-01-25T13:44:46;10.75;;;3.60;;
20619;SDS011;10469;42.720;23.252;2024-01-25T13:47:12;8.73;;;3.25;;
20619;SDS011;10469;42.720;23.252;2024-01-25T13:49:38;13.02;;;3.60;;
20619;SDS011;10469;42.720;23.252;2024-01-25T13:52:03;9.88;;;3.50;;
20619;SDS011;10469;42.720;23.252;2024-01-25T13:54:29;7.65;;;2.83;;
20619;SDS011;10469;42.720;23.252;2024-01-25T13:56:55;9.70;;;3.15;;
20619;SDS011;10469;42.720;23.252;2024-01-25T13:59:21;14.40;;;3.95;;
20619;SDS011;10469;42.720;23.252;2024-01-25T14:01:46;7.85;;;3.38;;
20619;SDS011;10469;42.720;23.252;2024-01-25T14:04:12;10.45;;;3.28;;
20619;SDS011;10469;42.720;23.252;2024-01-25T14:06:38;8.63;;;3.72;;
20619;SDS011;10469;42.720;23.252;2024-01-25T14:09:04;9.15;;;3.28;;
20619;SDS011;10469;42.720;23.252;2024-01-25T14:11:30;8.73;;;3.13;;
20619;SDS011;10469;42.720;23.252;2024-01-25T14:13:56;8.45;;;3.38;;
20619;SDS011;10469;42.720;23.252;2024-01-25T14:16:21;12.27;;;3.17;;
20619;SDS011;10469;42.720;23.252;2024-01-25T14:18:47;10.40;;;3.53;;
20619;SDS011;10469;42.720;23.252;2024-01-25T14:21:13;7.28;;;2.83;;
20619;SDS011;10469;42.720;23.252;2024-01-25T14:23:38;10.32;;;3.50;;
20619;SDS011;10469;42.720;23.252;2024-01-25T14:26:04;9.68;;;3.22;;
20619;SDS011;10469;42.720;23.252;2024-01-25T14:28:29;15.02;;;4.00;;
20619;SDS011;10469;42.720;23.252;2024-01-25T14:30:55;9.23;;;3.70;;
20619;SDS011;10469;42.720;23.252;2024-01-25T14:33:21;14.13;;;4.05;;
20619;SDS011;10469;42.720;23.252;2024-01-25T14:35:46;9.05;;;3.17;;
20619;SDS011;10469;42.720;23.252;2024-01-25T14:38:12;10.13;;;3.40;;
20619;SDS011;10469;42.720;23.252;2024-01-25T14:40:37;9.98;;;3.00;;
20619;SDS011;10469;42.720;23.252;2024-01-25T14:43:03;6.30;;;2.63;;
20619;SDS011;10469;42.720;23.252;2024-01-25T14:45:28;8.05;;;3.22;;
20619;SDS011;10469;42.720;23.252;2024-01-25T14:47:55;14.00;;;3.53;;
20619;SDS011;10469;42.720;23.252;2024-01-25T14:50:23;12.10;;;3.90;;
20619;SDS011;10469;42.720;23.252;2024-01-25T14:52:48;10.43;;;3.40;;
20619;SDS011;10469;42.720;23.252;2024-01-25T14:55:14;10.82;;;3.40;;
20619;SDS011;10469;42.720;23.252;2024-01-25T14:57:40;10.55;;;3.55;;
20619;SDS011;10469;42.720;23.252;2024-01-25T15:00:06;10.30;;;4.30;;
20619;SDS011;10469;42.720;23.252;2024-01-25T15:02:35;14.38;;;4.53;;
20619;SDS011;10469;42.720;23.252;2024-01-25T15:05:00;12.73;;;5.07;;
20619;SDS011;10469;42.720;23.252;2024-01-25T15:07:26;19.52;;;6.40;;
20619;SDS011;10469;42.720;23.252;2024-01-25T15:09:51;15.57;;;5.43;;
20619;SDS011;10469;42.720;23.252;2024-01-25T15:12:17;15.35;;;5.65;;
20619;SDS011;10469;42.720;23.252;2024-01-25T15:14:45;17.05;;;5.55;;
20619;SDS011;10469;42.720;23.252;2024-01-25T15:17:10;14.43;;;5.47;;
20619;SDS011;10469;42.720;23.252;2024-01-25T15:19:36;17.63;;;5.97;;
20619;SDS011;10469;42.720;23.252;2024-01-25T15:22:02;13.77;;;6.10;;
20619;SDS011;10469;42.720;23.252;2024-01-25T15:24:28;17.67;;;6.55;;
20619;SDS011;10469;42.720;23.252;2024-01-25T15:26:56;15.00;;;5.60;;
20619;SDS011;10469;42.720;23.252;2024-01-25T15:29:22;16.60;;;5.28;;
20619;SDS011;10469;42.720;23.252;2024-01-25T15:31:47;9.00;;;5.22;;
20619;SDS011;10469;42.720;23.252;2024-01-25T15:34:13;11.40;;;4.88;;
20619;SDS011;10469;42.720;23.252;2024-01-25T15:36:39;10.82;;;4.63;;
20619;SDS011;10469;42.720;23.252;2024-01-25T15:39:08;13.27;;;5.40;;
20619;SDS011;10469;42.720;23.252;2024-01-25T15:41:35;14.10;;;5.90;;
20619;SDS011;10469;42.720;23.252;2024-01-25T15:44:01;14.20;;;5.05;;
20619;SDS011;10469;42.720;23.252;2024-01-25T15:46:27;12.55;;;4.18;;
20619;SDS011;10469;42.720;23.252;2024-01-25T15:48:52;12.20;;;6.03;;
20619;SDS011;10469;42.720;23.252;2024-01-25T15:51:19;15.13;;;5.70;;
20619;SDS011;10469;42.720;23.252;2024-01-25T15:53:47;13.82;;;5.90;;
20619;SDS011;10469;42.720;23.252;2024-01-25T15:56:13;13.50;;;5.80;;
20619;SDS011;10469;42.720;23.252;2024-01-25T15:58:39;12.68;;;6.25;;
20619;SDS011;10469;42.720;23.252;2024-01-25T16:01:04;13.00;;;5.65;;
20619;SDS011;10469;42.720;23.252;2024-01-25T16:03:30;16.08;;;5.40;;
20619;SDS011;10469;42.720;23.252;2024-01-25T16:05:55;11.68;;;5.28;;
20619;SDS011;10469;42.720;23.252;2024-01-25T16:08:22;16.20;;;5.95;;
20619;SDS011;10469;42.720;23.252;2024-01-25T16:10:47;15.60;;;7.07;;
20619;SDS011;10469;42.720;23.252;2024-01-25T16:13:13;16.80;;;7.45;;
20619;SDS011;10469;42.720;23.252;2024-01-25T16:15:39;21.25;;;7.88;;
20619;SDS011;10469;42.720;23.252;2024-01-25T16:18:04;19.58;;;8.38;;
20619;SDS011;10469;42.720;23.252;2024-01-25T16:20:30;18.75;;;8.32;;
20619;SDS011;10469;42.720;23.252;2024-01-25T16:22:56;17.88;;;7.80;;
20619;SDS011;10469;42.720;23.252;2024-01-25T16:25:21;19.08;;;7.22;;
20619;SDS011;10469;42.720;23.252;2024-01-25T16:27:47;18.00;;;7.20;;
20619;SDS011;10469;42.720;23.252;2024-01-25T16:30:13;16.70;;;6.95;;
20619;SDS011;10469;42.720;23.252;2024-01-25T16:32:39;13.45;;;6.20;;
20619;SDS011;10469;42.720;23.252;2024-01-25T16:35:05;18.10;;;5.53;;
20619;SDS011;10469;42.720;23.252;2024-01-25T16:37:32;10.13;;;5.07;;
20619;SDS011;10469;42.720;23.252;2024-01-25T16:39:58;12.23;;;5.50;;
20619;SDS011;10469;42.720;23.252;2024-01-25T16:42:23;12.68;;;5.50;;
20619;SDS011;10469;42.720;23.252;2024-01-25T16:44:49;11.82;;;4.53;;
20619;SDS011;10469;42.720;23.252;2024-01-25T16:47:15;8.95;;;4.10;;
20619;SDS011;10469;42.720;23.252;2024-01-25T16:49:41;10.18;;;4.45;;
20619;SDS011;10469;42.720;23.252;2024-01-25T16:52:06;10.65;;;4.95;;
20619;SDS011;10469;42.720;23.252;2024-01-25T16:54:32;10.00;;;5.18;;
20619;SDS011;10469;42.720;23.252;2024-01-25T16:56:58;12.18;;;5.07;;
20619;SDS011;10469;42.720;23.252;2024-01-25T16:59:24;15.60;;;5.35;;
20619;SDS011;10469;42.720;23.252;2024-01-25T17:01:50;11.40;;;4.40;;
20619;SDS011;10469;42.720;23.252;2024-01-25T17:04:16;10.32;;;4.22;;
20619;SDS011;10469;42.720;23.252;2024-01-25T17:06:43;9.38;;;3.97;;
20619;SDS011;10469;42.720;23.252;2024-01-25T17:09:09;8.80;;;4.18;;
20619;SDS011;10469;42.720;23.252;2024-01-25T17:11:38;11.65;;;4.00;;
20619;SDS011;10469;42.720;23.252;2024-01-25T17:14:04;11.43;;;4.50;;
20619;SDS011;10469;42.720;23.252;2024-01-25T17:16:33;13.32;;;4.38;;
20619;SDS011;10469;42.720;23.252;2024-01-25T17:18:58;10.52;;;4.40;;
20619;SDS011;10469;42.720;23.252;2024-01-25T17:21:25;10.25;;;4.20;;
20619;SDS011;10469;42.720;23.252;2024-01-25T17:23:54;8.00;;;3.90;;
20619;SDS011;10469;42.720;23.252;2024-01-25T17:26:21;9.27;;;4.20;;
20619;SDS011;10469;42.720;23.252;2024-01-25T17:28:50;9.95;;;4.03;;
20619;SDS011;10469;42.720;23.252;2024-01-25T17:31:16;8.70;;;4.15;;
20619;SDS011;10469;42.720;23.252;2024-01-25T17:33:45;8.52;;;4.53;;
20619;SDS011;10469;42.720;23.252;2024-01-25T17:36:11;11.15;;;4.63;;
20619;SDS011;10469;42.720;23.252;2024-01-25T17:38:37;9.68;;;4.22;;
20619;SDS011;10469;42.720;23.252;2024-01-25T17:41:08;9.50;;;4.55;;
20619;SDS011;10469;42.720;23.252;2024-01-25T17:43:33;10.68;;;4.93;;
20619;SDS011;10469;42.720;23.252;2024-01-25T17:45:59;10.20;;;5.00;;
20619;SDS011;10469;42.720;23.252;2024-01-25T17:48:25;10.93;;;4.80;;
20619;SDS011;10469;42.720;23.252;2024-01-25T17:50:51;14.10;;;5.07;;
20619;SDS011;10469;42.720;23.252;2024-01-25T17:53:17;12.65;;;5.90;;
20619;SDS011;10469;42.720;23.252;2024-01-25T17:55:45;13.13;;;5.25;;
20619;SDS011;10469;42.720;23.252;2024-01-25T17:58:11;16.52;;;5.68;;
20619;SDS011;10469;42.720;23.252;2024-01-25T18:00:37;14.13;;;6.10;;
20619;SDS011;10469;42.720;23.252;2024-01-25T18:03:02;13.00;;;5.90;;
20619;SDS011;10469;42.720;23.252;2024-01-25T18:05:28;17.33;;;6.65;;
20619;SDS011;10469;42.720;23.252;2024-01-25T18:07:54;14.23;;;6.72;;
20619;SDS011;10469;42.720;23.252;2024-01-25T18:10:20;15.00;;;6.47;;
20619;SDS011;10469;42.720;23.252;2024-01-25T18:12:47;14.48;;;6.15;;
20619;SDS011;10469;42.720;23.252;2024-01-25T18:15:13;12.23;;;5.40;;
20619;SDS011;10469;42.720;23.252;2024-01-25T18:17:40;10.45;;;5.10;;
20619;SDS011;10469;42.720;23.252;2024-01-25T18:20:09;9.10;;;4.57;;
20619;SDS011;10469;42.720;23.252;2024-01-25T18:22:35;11.88;;;5.15;;
20619;SDS011;10469;42.720;23.252;2024-01-25T18:25:02;12.32;;;5.18;;
20619;SDS011;10469;42.720;23.252;2024-01-25T18:27:28;16.08;;;5.80;;
20619;SDS011;10469;42.720;23.252;2024-01-25T18:29:54;13.23;;;5.35;;
20619;SDS011;10469;42.720;23.252;2024-01-25T18:32:22;13.15;;;5.43;;
20619;SDS011;10469;42.720;23.252;2024-01-25T18:34:48;16.75;;;5.72;;
20619;SDS011;10469;42.720;23.252;2024-01-25T18:37:14;19.98;;;5.00;;
20619;SDS011;10469;42.720;23.252;2024-01-25T18:39:40;14.40;;;6.20;;
20619;SDS011;10469;42.720;23.252;2024-01-25T18:42:06;14.55;;;5.70;;
20619;SDS011;10469;42.720;23.252;2024-01-25T18:44:32;14.48;;;5.10;;
20619;SDS011;10469;42.720;23.252;2024-01-25T18:46:57;14.85;;;5.50;;
20619;SDS011;10469;42.720;23.252;2024-01-25T18:49:23;13.15;;;5.53;;
20619;SDS011;10469;42.720;23.252;2024-01-25T18:51:48;18.27;;;5.22;;
20619;SDS011;10469;42.720;23.252;2024-01-25T18:54:14;12.25;;;5.25;;
20619;SDS011;10469;42.720;23.252;2024-01-25T18:56:41;11.48;;;5.25;;
20619;SDS011;10469;42.720;23.252;2024-01-25T18:59:07;11.75;;;4.95;;
20619;SDS011;10469;42.720;23.252;2024-01-25T19:01:34;8.65;;;4.45;;
20619;SDS011;10469;42.720;23.252;2024-01-25T19:04:00;11.30;;;4.50;;
20619;SDS011;10469;42.720;23.252;2024-01-25T19:06:36;14.35;;;4.90;;
20619;SDS011;10469;42.720;23.252;2024-01-25T19:09:04;9.57;;;4.70;;
20619;SDS011;10469;42.720;23.252;2024-01-25T19:11:30;10.00;;;4.03;;
20619;SDS011;10469;42.720;23.252;2024-01-25T19:13:56;14.45;;;5.15;;
20619;SDS011;10469;42.720;23.252;2024-01-25T19:16:22;7.65;;;4.18;;
20619;SDS011;10469;42.720;23.252;2024-01-25T19:18:49;10.80;;;3.92;;
20619;SDS011;10469;42.720;23.252;2024-01-25T19:21:15;14.52;;;4.80;;
20619;SDS011;10469;42.720;23.252;2024-01-25T19:23:41;15.60;;;4.25;;
20619;SDS011;10469;42.720;23.252;2024-01-25T19:26:07;13.52;;;3.83;;
20619;SDS011;10469;42.720;23.252;2024-01-25T19:28:34;13.35;;;3.97;;
20619;SDS011;10469;42.720;23.252;2024-01-25T19:31:00;8.93;;;3.53;;
20619;SDS011;10469;42.720;23.252;2024-01-25T19:33:27;11.95;;;3.22;;
20619;SDS011;10469;42.720;23.252;2024-01-25T19:35:52;8.85;;;3.50;;
20619;SDS011;10469;42.720;23.252;2024-01-25T19:38:19;10.18;;;4.30;;
20619;SDS011;10469;42.720;23.252;2024-01-25T19:40:48;8.27;;;3.45;;
20619;SDS011;10469;42.720;23.252;2024-01-25T19:43:23;12.13;;;4.60;;
20619;SDS011;10469;42.720;23.252;2024-01-25T19:45:48;10.68;;;3.88;;
20619;SDS011;10469;42.720;23.252;2024-01-25T19:48:15;10.77;;;3.63;;
20619;SDS011;10469;42.720;23.252;2024-01-25T19:50:41;13.45;;;3.53;;
20619;SDS011;10469;42.720;23.252;2024-01-25T19:53:11;8.80;;;3.47;;
20619;SDS011;10469;42.720;23.252;2024-01-25T19:55:36;11.75;;;3.92;;
20619;SDS011;10469;42.720;23.252;2024-01-25T19:58:05;11.73;;;3.50;;
20619;SDS011;10469;42.720;23.252;2024-01-25T20:00:31;9.18;;;3.55;;
20619;SDS011;10469;42.720;23.252;2024-01-25T20:02:58;18.27;;;4.03;;
20619;SDS011;10469;42.720;23.252;2024-01-25T20:05:24;11.15;;;3.78;;
20619;SDS011;10469;42.720;23.252;2024-01-25T20:07:53;14.02;;;4.15;;
20619;SDS011;10469;42.720;23.252;2024-01-25T20:10:18;12.00;;;4.15;;
20619;SDS011;10469;42.720;23.252;2024-01-25T20:12:44;10.93;;;3.53;;
20619;SDS011;10469;42.720;23.252;2024-01-25T20:15:10;11.23;;;3.55;;